Terminal Aerodrome Forecast
Issued by NWS Green Bay, WI

Home | Current Version | Previous Version | Text Only | Print | Product List | Glossary Off
Versions: 1 2 3 4 5 6 7 8 9 10 11 12 13 14 15 16 17 18 19 20 21 22 23 24 25 26 27 28 29 30 31 32 33 34 35 36 37 38 39 40 41 42 43 44

957
FTUS43 KGRB 271506 AAC
TAFGRB
TAF AMD
KGRB 271506Z 2715/2812 27013G20KT P6SM SCT035 BKN070
     FM272100 27012KT 5SM -SHRA OVC030
     FM280100 28007KT P6SM -SHRA OVC025 PROB30 2804/2808 4SM -SHRA
      OVC015
     FM281000 34005KT P6SM OVC015=

USA.gov is the U.S. government's official web portal to all federal, state and local government web resources and services.